Time;durP1;ratioP1;P1;durP2;ratioP2;P2;SDS_P1;SDS_P2;PMS_P1;PMS_P2;Temp;Humidity;BMP_temperature;BMP_pressure;BME280_temperature;BME280_humidity;BME280_pressure;Samples;Min_cycle;Max_cycle;Signal;HPM_P1;HPM_P2
2023/09/28 00:00:49;;;;;;;;;;;15.30;85.70;;;;;;5099220;27;19923;-64
2023/09/28 00:03:22;;;;;;;;;;;15.20;85.80;;;;;;5098626;27;19970;-62
2023/09/28 00:05:55;;;;;;;;;;;15.30;85.80;;;;;;5089264;27;19928;-63
2023/09/28 00:08:28;;;;;;;;;;;15.20;85.80;;;;;;5088245;28;19924;-63
2023/09/28 00:11:00;;;;;;;;;;;15.20;85.80;;;;;;5089589;28;19925;-63
2023/09/28 00:13:35;;;;;;;;;;;15.10;85.70;;;;;;5090867;28;19925;-62
2023/09/28 00:16:08;;;;;;;;;;;15.10;85.80;;;;;;5086940;28;20432;-62
2023/09/28 00:18:41;;;;;;;;;;;15.10;86.00;;;;;;5085805;28;19960;-63
2023/09/28 00:21:13;;;;;;;;;;;15.10;86.00;;;;;;5085860;28;19958;-64
2023/09/28 00:23:55;;;;;;;;;;;15.00;86.20;;;;;;5090266;28;19928;-64
2023/09/28 00:26:27;;;;;;;;;;;15.00;86.20;;;;;;5105354;27;19928;-63
2023/09/28 00:29:04;;;;;;;;;;;15.00;86.20;;;;;;5109357;27;20366;-62
2023/09/28 00:31:36;;;;;;;;;;;15.00;86.10;;;;;;5125970;27;19924;-64
2023/09/28 00:34:05;;;;;;;;;;;15.00;86.20;;;;;;5105607;27;20367;-63
2023/09/28 00:57:46;;;;;;;;;;;15.00;86.70;;;;;;5086732;27;20011;-63
2023/09/28 01:00:20;;;;;;;;;;;15.00;86.80;;;;;;5087739;28;19925;-64
2023/09/28 01:02:55;;;;;;;;;;;15.10;86.80;;;;;;5104846;27;19931;-63
2023/09/28 01:05:31;;;;;;;;;;;15.00;86.90;;;;;;5087111;27;20352;-63
2023/09/28 01:08:08;;;;;;;;;;;15.00;86.90;;;;;;5082375;28;19930;-63
2023/09/28 01:10:41;;;;;;;;;;;15.00;86.90;;;;;;5088474;28;20371;-63
2023/09/28 01:13:16;;;;;;;;;;;15.10;86.70;;;;;;5118357;27;20409;-63
2023/09/28 01:15:49;;;;;;;;;;;15.00;86.60;;;;;;5096546;28;19928;-63
2023/09/28 01:18:23;;;;;;;;;;;15.00;86.30;;;;;;5088196;28;19924;-64
2023/09/28 01:20:57;;;;;;;;;;;15.00;86.10;;;;;;5087045;28;19932;-63
2023/09/28 01:23:32;;;;;;;;;;;15.00;86.20;;;;;;5087988;28;19931;-62
2023/09/28 01:26:06;;;;;;;;;;;15.00;86.20;;;;;;5085856;28;20463;-63
2023/09/28 01:28:33;;;;;;;;;;;14.90;86.40;;;;;;5088454;28;20019;-64
2023/09/28 01:31:05;;;;;;;;;;;14.90;86.40;;;;;;5086477;28;19924;-64
2023/09/28 01:33:38;;;;;;;;;;;14.90;86.40;;;;;;5088189;28;19976;-64
2023/09/28 01:36:11;;;;;;;;;;;14.80;86.40;;;;;;5087105;28;19928;-63
2023/09/28 01:38:48;;;;;;;;;;;14.80;86.40;;;;;;5091721;28;20432;-62
2023/09/28 01:41:21;;;;;;;;;;;14.90;86.40;;;;;;5089804;28;19963;-62
2023/09/28 01:43:53;;;;;;;;;;;14.80;86.40;;;;;;5090881;28;19928;-63
2023/09/28 01:46:26;;;;;;;;;;;14.70;86.60;;;;;;5095473;28;20006;-63
2023/09/28 01:48:52;;;;;;;;;;;14.80;86.60;;;;;;5099308;27;20386;-62
2023/09/28 01:51:25;;;;;;;;;;;14.80;86.60;;;;;;5090434;28;19959;-64
2023/09/28 01:53:59;;;;;;;;;;;14.70;86.60;;;;;;5088990;28;19928;-65
2023/09/28 01:56:32;;;;;;;;;;;14.70;86.40;;;;;;5090515;28;20440;-64
2023/09/28 01:59:04;;;;;;;;;;;14.60;86.50;;;;;;5088634;28;20011;-66
2023/09/28 02:01:37;;;;;;;;;;;14.60;86.60;;;;;;5091351;28;19928;-65
2023/09/28 02:04:11;;;;;;;;;;;14.60;86.50;;;;;;5105474;28;19939;-64
2023/09/28 02:06:50;;;;;;;;;;;14.60;86.20;;;;;;5084094;28;19928;-65
2023/09/28 02:09:25;;;;;;;;;;;14.60;86.00;;;;;;5090536;28;19927;-64
2023/09/28 02:11:58;;;;;;;;;;;14.60;86.00;;;;;;5089435;28;19928;-66
2023/09/28 02:14:31;;;;;;;;;;;14.60;86.00;;;;;;5089778;28;19971;-65
2023/09/28 02:17:03;;;;;;;;;;;14.50;86.10;;;;;;5087551;28;20383;-64
2023/09/28 02:19:36;;;;;;;;;;;14.60;86.00;;;;;;5107030;28;19932;-64
2023/09/28 02:22:09;;;;;;;;;;;14.50;86.00;;;;;;5089813;28;20101;-64
2023/09/28 02:24:45;;;;;;;;;;;14.50;86.10;;;;;;5091525;28;19928;-64
2023/09/28 02:27:17;;;;;;;;;;;14.50;86.20;;;;;;5103719;27;19927;-64
2023/09/28 02:29:44;;;;;;;;;;;14.50;86.20;;;;;;5103346;27;20629;-65
2023/09/28 02:32:16;;;;;;;;;;;14.50;86.50;;;;;;5101174;27;19924;-64
2023/09/28 02:34:49;;;;;;;;;;;14.40;86.80;;;;;;5091959;27;19970;-64
2023/09/28 02:37:21;;;;;;;;;;;14.50;87.00;;;;;;5089856;28;19924;-64
2023/09/28 02:39:57;;;;;;;;;;;14.50;86.90;;;;;;5089913;28;19932;-65
2023/09/28 02:42:35;;;;;;;;;;;14.50;87.00;;;;;;5094979;27;19924;-65
2023/09/28 02:45:11;;;;;;;;;;;14.50;87.10;;;;;;5090904;27;19928;-64
2023/09/28 02:47:46;;;;;;;;;;;14.50;87.00;;;;;;5088870;28;19928;-64
2023/09/28 02:50:21;;;;;;;;;;;14.50;87.10;;;;;;5087107;28;19930;-65
2023/09/28 02:52:53;;;;;;;;;;;14.50;87.00;;;;;;5088617;28;20396;-65
2023/09/28 02:55:29;;;;;;;;;;;14.50;87.20;;;;;;5101898;28;19939;-64
2023/09/28 02:58:01;;;;;;;;;;;14.50;87.20;;;;;;5090232;28;19924;-64
2023/09/28 03:00:35;;;;;;;;;;;14.40;87.30;;;;;;5090694;28;20031;-69
2023/09/28 03:03:09;;;;;;;;;;;14.40;87.40;;;;;;5090911;28;20393;-68
2023/09/28 03:05:43;;;;;;;;;;;14.30;87.30;;;;;;5087893;28;20554;-67
2023/09/28 03:08:14;;;;;;;;;;;14.30;87.40;;;;;;5088013;28;20019;-69
2023/09/28 03:10:50;;;;;;;;;;;14.40;87.20;;;;;;5088809;28;19967;-69
2023/09/28 03:13:22;;;;;;;;;;;14.40;87.10;;;;;;5106518;28;20445;-68
2023/09/28 03:15:56;;;;;;;;;;;14.30;87.20;;;;;;5109736;27;19946;-69
2023/09/28 03:18:29;;;;;;;;;;;14.30;87.20;;;;;;5108868;27;19927;-67
2023/09/28 03:21:02;;;;;;;;;;;14.40;87.10;;;;;;5110196;27;19924;-69
2023/09/28 03:23:31;;;;;;;;;;;14.30;87.10;;;;;;5110815;27;19928;-69
2023/09/28 03:26:06;;;;;;;;;;;14.30;87.20;;;;;;5103849;27;19924;-68
2023/09/28 03:28:45;;;;;;;;;;;14.30;87.10;;;;;;5090559;27;19928;-69
2023/09/28 03:31:18;;;;;;;;;;;14.30;87.20;;;;;;5090344;28;19924;-69
2023/09/28 03:33:50;;;;;;;;;;;14.40;87.00;;;;;;5102034;27;19936;-69
2023/09/28 03:36:23;;;;;;;;;;;14.40;87.00;;;;;;5090271;27;19924;-69
2023/09/28 03:38:56;;;;;;;;;;;14.40;86.90;;;;;;5097276;28;19931;-68
2023/09/28 03:41:31;;;;;;;;;;;14.40;87.00;;;;;;5088532;28;19931;-68
2023/09/28 03:44:05;;;;;;;;;;;14.40;87.00;;;;;;5106781;27;19931;-69
2023/09/28 03:46:39;;;;;;;;;;;14.40;87.10;;;;;;5110407;27;20011;-69
2023/09/28 03:49:12;;;;;;;;;;;14.40;87.20;;;;;;5111046;27;20394;-69
2023/09/28 03:51:44;;;;;;;;;;;14.30;87.40;;;;;;5108577;27;19931;-68
2023/09/28 03:54:17;;;;;;;;;;;14.40;87.40;;;;;;5088561;28;20003;-69
2023/09/28 03:56:52;;;;;;;;;;;14.30;87.40;;;;;;5083876;28;19928;-68
2023/09/28 03:59:26;;;;;;;;;;;14.30;87.50;;;;;;5101831;27;19927;-68
2023/09/28 04:01:58;;;;;;;;;;;14.40;87.40;;;;;;5106878;27;19928;-69
2023/09/28 04:04:31;;;;;;;;;;;14.40;87.30;;;;;;5109757;27;19928;-69
2023/09/28 04:06:58;;;;;;;;;;;14.30;87.30;;;;;;5108144;27;20370;-69
2023/09/28 04:09:32;;;;;;;;;;;14.40;87.30;;;;;;5109348;27;19928;-69
2023/09/28 04:12:07;;;;;;;;;;;14.30;87.30;;;;;;5107997;27;19924;-69
2023/09/28 04:14:40;;;;;;;;;;;14.30;87.60;;;;;;5108108;27;19931;-69
2023/09/28 04:17:13;;;;;;;;;;;14.30;87.50;;;;;;5088172;28;20418;-70
2023/09/28 04:19:46;;;;;;;;;;;14.30;87.60;;;;;;5106036;27;19950;-70
2023/09/28 04:22:19;;;;;;;;;;;14.20;87.50;;;;;;5099786;27;20027;-69
2023/09/28 04:24:52;;;;;;;;;;;14.30;87.60;;;;;;5100869;27;19928;-69
2023/09/28 04:27:27;;;;;;;;;;;14.20;87.70;;;;;;5088008;28;19928;-70
2023/09/28 04:29:59;;;;;;;;;;;14.30;87.70;;;;;;5103156;27;19938;-69
2023/09/28 04:32:33;;;;;;;;;;;14.30;87.70;;;;;;5109405;27;20003;-70
2023/09/28 04:35:10;;;;;;;;;;;14.30;87.60;;;;;;5107057;27;19969;-70
2023/09/28 04:37:44;;;;;;;;;;;14.30;87.70;;;;;;5084796;27;19932;-70
2023/09/28 04:40:18;;;;;;;;;;;14.30;87.50;;;;;;5088430;28;19928;-71
2023/09/28 04:42:52;;;;;;;;;;;14.30;87.60;;;;;;5088622;28;19931;-68
2023/09/28 04:45:25;;;;;;;;;;;14.30;87.60;;;;;;5086822;28;19928;-70
2023/09/28 04:47:59;;;;;;;;;;;14.30;87.50;;;;;;5086281;28;19939;-69
2023/09/28 04:50:32;;;;;;;;;;;14.30;87.50;;;;;;5088581;28;19959;-69
2023/09/28 04:53:05;;;;;;;;;;;14.30;87.50;;;;;;5087367;28;19924;-70
2023/09/28 04:55:38;;;;;;;;;;;14.30;87.50;;;;;;5101248;27;19931;-70
2023/09/28 04:58:13;;;;;;;;;;;14.30;87.50;;;;;;5095419;27;19959;-70
2023/09/28 05:00:46;;;;;;;;;;;14.20;87.60;;;;;;5087517;28;19928;-70
2023/09/28 05:03:18;;;;;;;;;;;14.20;87.50;;;;;;5108497;27;20370;-69
2023/09/28 05:05:51;;;;;;;;;;;14.20;87.60;;;;;;5108729;27;20314;-69
2023/09/28 05:08:25;;;;;;;;;;;14.20;87.60;;;;;;5102214;27;19924;-70
2023/09/28 05:10:58;;;;;;;;;;;14.20;87.60;;;;;;5086718;28;19924;-70
2023/09/28 05:13:32;;;;;;;;;;;14.20;87.60;;;;;;5091744;28;19958;-69
2023/09/28 05:16:05;;;;;;;;;;;14.20;87.70;;;;;;5091355;28;20320;-69
2023/09/28 05:18:39;;;;;;;;;;;14.20;87.70;;;;;;5092937;28;19988;-69
2023/09/28 05:21:12;;;;;;;;;;;14.20;87.60;;;;;;5090910;28;19932;-62
2023/09/28 05:23:45;;;;;;;;;;;14.20;87.50;;;;;;5091108;28;19950;-62
2023/09/28 05:26:25;;;;;;;;;;;14.20;87.40;;;;;;5094487;28;19986;-63
2023/09/28 05:29:00;;;;;;;;;;;14.20;87.30;;;;;;5112991;27;19946;-62
2023/09/28 05:31:33;;;;;;;;;;;14.20;87.30;;;;;;5105611;27;19932;-62
2023/09/28 05:34:06;;;;;;;;;;;14.10;87.40;;;;;;5113391;27;19924;-63
2023/09/28 05:36:39;;;;;;;;;;;14.20;87.40;;;;;;5110309;27;19938;-63
2023/09/28 05:39:12;;;;;;;;;;;14.10;87.40;;;;;;5111862;27;19938;-64
2023/09/28 05:41:45;;;;;;;;;;;14.10;87.60;;;;;;5111915;27;19930;-62
2023/09/28 05:44:20;;;;;;;;;;;14.10;87.60;;;;;;5100275;27;20066;-63
2023/09/28 05:46:47;;;;;;;;;;;14.10;87.60;;;;;;5091326;28;19924;-63
2023/09/28 05:49:20;;;;;;;;;;;14.10;87.60;;;;;;5100433;27;19923;-63
2023/09/28 05:51:52;;;;;;;;;;;14.10;87.60;;;;;;5087765;27;19924;-63
2023/09/28 05:54:19;;;;;;;;;;;14.20;87.60;;;;;;5105280;27;20401;-62
2023/09/28 05:56:52;;;;;;;;;;;14.20;87.60;;;;;;5110695;27;19963;-62
2023/09/28 05:59:27;;;;;;;;;;;14.30;87.50;;;;;;5088706;27;20036;-63
2023/09/28 06:02:00;;;;;;;;;;;14.30;87.60;;;;;;5090484;28;19938;-62
2023/09/28 06:04:34;;;;;;;;;;;14.40;87.40;;;;;;5092643;28;19928;-64
2023/09/28 06:07:07;;;;;;;;;;;14.40;87.40;;;;;;5089344;28;19952;-63
2023/09/28 06:09:40;;;;;;;;;;;14.40;87.50;;;;;;5091692;28;19924;-62
2023/09/28 06:12:13;;;;;;;;;;;14.40;87.60;;;;;;5089720;28;20365;-62
2023/09/28 06:14:48;;;;;;;;;;;14.50;87.60;;;;;;5107876;27;19932;-62
2023/09/28 06:17:23;;;;;;;;;;;14.50;87.60;;;;;;5102040;27;19924;-64
2023/09/28 06:19:57;;;;;;;;;;;14.60;87.50;;;;;;5111828;27;20019;-63
2023/09/28 06:22:29;;;;;;;;;;;14.50;87.60;;;;;;5095561;27;19977;-62
2023/09/28 06:25:03;;;;;;;;;;;14.60;87.50;;;;;;5090813;28;19986;-63
2023/09/28 06:27:38;;;;;;;;;;;14.60;87.60;;;;;;5090292;28;19928;-63
2023/09/28 06:30:13;;;;;;;;;;;14.60;87.80;;;;;;5086895;28;19928;-62
2023/09/28 06:32:47;;;;;;;;;;;14.60;87.80;;;;;;5106162;27;19931;-69
2023/09/28 06:35:19;;;;;;;;;;;14.70;87.70;;;;;;5110905;27;20443;-70
2023/09/28 06:37:53;;;;;;;;;;;14.80;87.50;;;;;;5102401;27;19950;-69
2023/09/28 06:40:25;;;;;;;;;;;14.80;87.60;;;;;;5090720;27;19924;-69
2023/09/28 06:42:58;;;;;;;;;;;14.80;87.80;;;;;;5091412;28;20384;-70
2023/09/28 06:45:33;;;;;;;;;;;14.80;87.80;;;;;;5089580;28;20144;-69
2023/09/28 06:48:07;;;;;;;;;;;14.80;87.90;;;;;;5090681;27;20430;-70
2023/09/28 06:50:34;;;;;;;;;;;14.80;87.90;;;;;;5088911;28;19930;-70
2023/09/28 06:53:07;;;;;;;;;;;14.80;87.90;;;;;;5090765;28;20325;-70
2023/09/28 06:55:42;;;;;;;;;;;14.80;87.90;;;;;;5091309;28;19924;-70
2023/09/28 06:58:17;;;;;;;;;;;14.70;88.00;;;;;;5111426;27;20419;-70
2023/09/28 07:00:52;;;;;;;;;;;14.70;88.00;;;;;;5105282;27;20385;-69
2023/09/28 07:03:26;;;;;;;;;;;14.70;88.00;;;;;;5110416;27;19967;-69
2023/09/28 07:06:00;;;;;;;;;;;14.70;87.90;;;;;;5106692;27;19928;-69
2023/09/28 07:08:33;;;;;;;;;;;14.70;88.00;;;;;;5090033;27;19935;-69
2023/09/28 07:11:06;;;;;;;;;;;14.60;87.90;;;;;;5090152;27;19924;-69
2023/09/28 07:13:39;;;;;;;;;;;14.70;87.90;;;;;;5089881;28;20053;-70
2023/09/28 07:16:14;;;;;;;;;;;14.70;87.80;;;;;;5090172;28;19932;-71
2023/09/28 07:18:48;;;;;;;;;;;14.70;87.80;;;;;;5097721;28;19932;-71
2023/09/28 07:21:28;;;;;;;;;;;14.80;87.70;;;;;;5088380;28;19969;-69
2023/09/28 07:24:03;;;;;;;;;;;14.80;87.70;;;;;;5090614;28;19924;-69
2023/09/28 07:26:36;;;;;;;;;;;14.90;87.60;;;;;;5104513;27;19928;-70
2023/09/28 07:29:09;;;;;;;;;;;15.00;87.50;;;;;;5108543;27;19928;-69
2023/09/28 07:31:43;;;;;;;;;;;15.10;87.50;;;;;;5107968;27;19949;-69
2023/09/28 07:34:17;;;;;;;;;;;15.10;87.80;;;;;;5090258;28;19987;-69
2023/09/28 07:36:50;;;;;;;;;;;15.20;87.80;;;;;;5106041;27;20386;-69
2023/09/28 07:39:24;;;;;;;;;;;15.30;88.00;;;;;;5110071;27;19928;-70
2023/09/28 07:41:58;;;;;;;;;;;15.40;88.40;;;;;;5101166;27;19931;-67
2023/09/28 07:44:32;;;;;;;;;;;15.60;88.30;;;;;;5090500;27;20690;-68
2023/09/28 07:47:06;;;;;;;;;;;15.70;89.00;;;;;;5087577;28;19963;-68
2023/09/28 07:49:40;;;;;;;;;;;15.70;88.80;;;;;;5089539;28;19968;-69
2023/09/28 07:52:13;;;;;;;;;;;15.70;88.70;;;;;;5088886;28;19931;-68
2023/09/28 07:54:46;;;;;;;;;;;15.70;88.50;;;;;;5088273;28;19980;-67
2023/09/28 07:57:19;;;;;;;;;;;15.70;88.60;;;;;;5086071;28;19924;-67
2023/09/28 07:59:54;;;;;;;;;;;15.70;88.70;;;;;;5088936;28;19924;-67
2023/09/28 08:02:40;;;;;;;;;;;15.70;88.70;;;;;;5088513;28;19931;-68
2023/09/28 08:05:13;;;;;;;;;;;15.70;88.70;;;;;;5086251;28;19932;-67
2023/09/28 08:07:47;;;;;;;;;;;15.70;88.60;;;;;;5100959;27;19999;-67
2023/09/28 08:10:22;;;;;;;;;;;15.70;88.70;;;;;;5087588;28;19951;-69
2023/09/28 08:12:55;;;;;;;;;;;15.60;88.80;;;;;;5087263;28;20272;-67
2023/09/28 08:15:29;;;;;;;;;;;15.70;89.10;;;;;;5091608;27;20351;-67
2023/09/28 08:18:03;;;;;;;;;;;15.80;89.00;;;;;;5089471;28;20390;-67
2023/09/28 08:20:37;;;;;;;;;;;15.90;88.90;;;;;;5087845;28;19939;-67
2023/09/28 08:23:11;;;;;;;;;;;15.90;88.90;;;;;;5088965;28;20371;-67
2023/09/28 08:25:44;;;;;;;;;;;16.10;88.60;;;;;;5089922;28;20335;-67
2023/09/28 08:28:10;;;;;;;;;;;16.20;89.20;;;;;;5088429;28;19932;-68
2023/09/28 08:30:43;;;;;;;;;;;16.40;88.50;;;;;;5100021;27;19931;-68
2023/09/28 08:33:18;;;;;;;;;;;16.60;88.90;;;;;;5088541;27;19925;-67
2023/09/28 08:35:52;;;;;;;;;;;16.70;88.40;;;;;;5085390;28;19965;-68
2023/09/28 08:38:25;;;;;;;;;;;17.00;88.50;;;;;;5087822;28;19931;-68
2023/09/28 08:40:59;;;;;;;;;;;17.10;88.40;;;;;;5088094;28;19932;-68
2023/09/28 08:43:40;;;;;;;;;;;17.30;87.70;;;;;;5089300;28;19935;-67
2023/09/28 08:46:14;;;;;;;;;;;17.40;87.80;;;;;;5088983;28;19928;-69
2023/09/28 08:48:51;;;;;;;;;;;17.50;87.60;;;;;;5093441;28;19928;-67
2023/09/28 08:51:26;;;;;;;;;;;17.60;87.20;;;;;;5103376;27;19928;-72
2023/09/28 08:54:03;;;;;;;;;;;17.70;87.00;;;;;;5106272;27;19931;-72
2023/09/28 08:56:38;;;;;;;;;;;17.80;86.70;;;;;;5104825;27;19924;-73
2023/09/28 08:59:12;;;;;;;;;;;18.00;86.50;;;;;;5092405;27;19924;-75
2023/09/28 09:01:47;;;;;;;;;;;18.10;86.70;;;;;;5092083;28;19982;-73
2023/09/28 09:04:22;;;;;;;;;;;18.20;86.20;;;;;;5112762;27;20291;-74
2023/09/28 09:06:56;;;;;;;;;;;18.40;85.80;;;;;;5112065;27;19924;-72
2023/09/28 09:09:31;;;;;;;;;;;18.50;85.40;;;;;;5091932;27;19928;-73
2023/09/28 09:12:05;;;;;;;;;;;18.60;85.10;;;;;;5091400;28;19928;-73
2023/09/28 09:14:39;;;;;;;;;;;18.80;84.50;;;;;;5092103;28;19977;-74
2023/09/28 09:17:11;;;;;;;;;;;18.90;84.40;;;;;;5093368;28;19924;-73
2023/09/28 09:19:46;;;;;;;;;;;19.10;84.10;;;;;;5091678;28;19950;-72
2023/09/28 09:22:25;;;;;;;;;;;19.10;83.80;;;;;;5093021;28;19928;-72
2023/09/28 09:24:59;;;;;;;;;;;19.30;83.10;;;;;;5092501;28;19928;-73
2023/09/28 09:27:32;;;;;;;;;;;19.40;82.50;;;;;;5090748;28;20432;-75
2023/09/28 09:30:08;;;;;;;;;;;19.50;82.80;;;;;;5091551;28;19924;-73
2023/09/28 09:32:42;;;;;;;;;;;19.60;82.50;;;;;;5089322;28;20015;-73
2023/09/28 09:35:20;;;;;;;;;;;19.60;82.40;;;;;;5109686;27;20393;-73
2023/09/28 09:37:54;;;;;;;;;;;19.70;82.20;;;;;;5111890;27;19931;-73
2023/09/28 09:40:21;;;;;;;;;;;19.80;81.00;;;;;;5112478;27;19928;-73
2023/09/28 09:42:56;;;;;;;;;;;19.90;81.40;;;;;;5103059;27;20737;-73
2023/09/28 09:45:30;;;;;;;;;;;19.90;81.30;;;;;;5089814;28;20363;-72
2023/09/28 09:48:05;;;;;;;;;;;20.00;80.10;;;;;;5091832;28;19924;-73
2023/09/28 09:50:40;;;;;;;;;;;20.10;79.30;;;;;;5091559;28;19936;-73
2023/09/28 09:53:14;;;;;;;;;;;20.20;78.90;;;;;;5108031;27;20329;-72
2023/09/28 09:55:49;;;;;;;;;;;20.30;79.20;;;;;;5099372;27;20290;-71
2023/09/28 09:58:27;;;;;;;;;;;20.40;77.80;;;;;;5087732;28;19924;-74
2023/09/28 10:01:01;;;;;;;;;;;20.50;77.90;;;;;;5088068;28;19936;-70
2023/09/28 10:03:35;;;;;;;;;;;20.60;76.60;;;;;;5091307;28;19934;-72
2023/09/28 10:06:10;;;;;;;;;;;20.60;76.50;;;;;;5090894;28;19967;-69
2023/09/28 10:08:45;;;;;;;;;;;20.70;75.90;;;;;;5090517;28;20436;-70
2023/09/28 10:11:18;;;;;;;;;;;20.80;75.70;;;;;;5091016;28;20368;-70
2023/09/28 10:13:52;;;;;;;;;;;20.90;75.20;;;;;;5099128;27;19927;-71
2023/09/28 10:16:25;;;;;;;;;;;21.00;75.40;;;;;;5111517;27;19953;-70
2023/09/28 10:18:59;;;;;;;;;;;21.10;75.20;;;;;;5100549;27;19929;-70
2023/09/28 10:21:39;;;;;;;;;;;21.20;74.30;;;;;;5090347;27;19924;-71
2023/09/28 10:24:12;;;;;;;;;;;21.30;74.10;;;;;;5091827;28;20011;-69
2023/09/28 10:26:48;;;;;;;;;;;21.30;73.80;;;;;;5091214;28;19924;-70
2023/09/28 10:29:23;;;;;;;;;;;21.40;73.40;;;;;;5087140;28;19943;-69
2023/09/28 10:31:57;;;;;;;;;;;21.50;72.60;;;;;;5107922;27;19923;-71
2023/09/28 10:34:31;;;;;;;;;;;21.50;72.60;;;;;;5095214;27;19932;-72
2023/09/28 10:37:23;;;;;;;;;;;21.60;73.00;;;;;;5089920;27;20275;-69
2023/09/28 10:39:57;;;;;;;;;;;21.60;73.10;;;;;;5090929;28;20402;-70
2023/09/28 10:42:31;;;;;;;;;;;21.60;73.10;;;;;;5104479;28;20371;-71
2023/09/28 10:45:06;;;;;;;;;;;21.70;73.10;;;;;;5089608;28;19970;-70
2023/09/28 10:47:40;;;;;;;;;;;21.70;72.80;;;;;;5088932;28;19932;-72
2023/09/28 10:50:15;;;;;;;;;;;21.80;72.50;;;;;;5090495;28;19938;-70
2023/09/28 10:52:50;;;;;;;;;;;21.80;72.20;;;;;;5088240;28;19933;-70
2023/09/28 10:55:24;;;;;;;;;;;21.90;72.10;;;;;;5090219;28;19947;-71
2023/09/28 10:58:03;;;;;;;;;;;22.00;72.10;;;;;;5088011;28;20394;-70
2023/09/28 11:00:37;;;;;;;;;;;22.10;71.60;;;;;;5088446;28;19985;-70
2023/09/28 11:03:11;;;;;;;;;;;22.10;71.40;;;;;;5089079;28;19935;-70
2023/09/28 11:05:45;;;;;;;;;;;22.20;71.30;;;;;;5090558;28;19951;-70
2023/09/28 11:08:14;;;;;;;;;;;22.20;71.60;;;;;;5090082;28;19931;-71
2023/09/28 11:10:49;;;;;;;;;;;22.20;70.70;;;;;;5090698;28;19931;-70
2023/09/28 11:13:22;;;;;;;;;;;22.20;71.00;;;;;;5091886;28;20282;-71
2023/09/28 11:15:56;;;;;;;;;;;22.20;70.80;;;;;;5100653;27;19951;-70
2023/09/28 11:18:29;;;;;;;;;;;22.20;70.50;;;;;;5104061;27;19928;-69
2023/09/28 11:21:03;;;;;;;;;;;22.30;71.00;;;;;;5089450;27;19939;-70
2023/09/28 11:23:39;;;;;;;;;;;22.40;71.60;;;;;;5106092;27;20305;-70
2023/09/28 11:26:14;;;;;;;;;;;22.40;71.40;;;;;;5098041;27;19924;-71
2023/09/28 11:28:56;;;;;;;;;;;22.50;71.20;;;;;;5096527;27;20028;-69
2023/09/28 11:31:35;;;;;;;;;;;22.60;70.60;;;;;;5095853;27;19947;-69
2023/09/28 11:34:08;;;;;;;;;;;22.60;70.50;;;;;;5090110;28;19931;-70
2023/09/28 11:36:41;;;;;;;;;;;22.60;70.90;;;;;;5089791;28;19927;-70
2023/09/28 11:39:16;;;;;;;;;;;22.50;70.90;;;;;;5090375;28;20282;-70
2023/09/28 11:41:56;;;;;;;;;;;22.40;71.00;;;;;;5097856;27;20390;-68
2023/09/28 11:44:30;;;;;;;;;;;22.40;70.40;;;;;;5108910;27;19930;-71
2023/09/28 11:47:05;;;;;;;;;;;22.40;71.10;;;;;;5105442;27;19930;-69
2023/09/28 11:49:43;;;;;;;;;;;22.40;70.40;;;;;;5110144;27;20378;-71
2023/09/28 11:52:16;;;;;;;;;;;22.40;70.20;;;;;;5089294;28;20304;-69
2023/09/28 11:54:50;;;;;;;;;;;22.40;70.90;;;;;;5106184;27;20022;-69
2023/09/28 11:57:24;;;;;;;;;;;22.40;70.90;;;;;;5085518;28;20466;-70
2023/09/28 11:59:57;;;;;;;;;;;22.40;71.50;;;;;;5088644;28;19962;-68
2023/09/28 12:02:31;;;;;;;;;;;22.50;71.60;;;;;;5087873;28;19928;-69
2023/09/28 12:05:07;;;;;;;;;;;22.50;71.30;;;;;;5088625;28;19931;-70
2023/09/28 12:07:41;;;;;;;;;;;22.40;70.70;;;;;;5093355;28;19935;-69
2023/09/28 12:10:17;;;;;;;;;;;22.50;71.30;;;;;;5109255;27;19932;-71
2023/09/28 12:12:51;;;;;;;;;;;22.60;71.90;;;;;;5109707;27;20018;-71
2023/09/28 12:15:24;;;;;;;;;;;22.70;71.90;;;;;;5107085;27;19927;-71
2023/09/28 12:17:57;;;;;;;;;;;22.60;72.00;;;;;;5109154;27;19927;-71
2023/09/28 12:20:31;;;;;;;;;;;22.60;71.20;;;;;;5108014;27;19934;-63
2023/09/28 12:23:05;;;;;;;;;;;22.60;71.50;;;;;;5090177;27;19932;-64
2023/09/28 12:25:34;;;;;;;;;;;22.40;72.10;;;;;;5089540;28;19963;-63
2023/09/28 12:28:14;;;;;;;;;;;22.40;72.40;;;;;;5085699;28;19924;-63
2023/09/28 12:30:48;;;;;;;;;;;22.40;72.80;;;;;;5088495;28;19932;-63
2023/09/28 12:33:21;;;;;;;;;;;22.50;72.70;;;;;;5087709;28;19935;-63
2023/09/28 12:35:54;;;;;;;;;;;22.40;72.50;;;;;;5087527;28;19928;-65
2023/09/28 12:38:27;;;;;;;;;;;22.40;71.90;;;;;;5088522;28;20428;-65
2023/09/28 12:41:03;;;;;;;;;;;22.50;71.90;;;;;;5086398;28;20390;-64
2023/09/28 12:43:37;;;;;;;;;;;22.50;72.30;;;;;;5089298;28;20305;-63
2023/09/28 12:46:10;;;;;;;;;;;22.50;71.60;;;;;;5088484;28;19936;-63
2023/09/28 12:48:43;;;;;;;;;;;22.40;71.30;;;;;;5087957;28;19928;-63
2023/09/28 12:51:17;;;;;;;;;;;22.40;71.80;;;;;;5096951;27;19924;-65
2023/09/28 12:53:50;;;;;;;;;;;22.40;71.80;;;;;;5089042;28;19963;-66
2023/09/28 12:56:24;;;;;;;;;;;22.40;71.60;;;;;;5088923;28;19940;-63
2023/09/28 12:58:58;;;;;;;;;;;22.30;72.10;;;;;;5089276;28;19947;-64
2023/09/28 13:01:37;;;;;;;;;;;22.30;71.80;;;;;;5086650;28;19924;-64
2023/09/28 13:04:11;;;;;;;;;;;22.30;71.90;;;;;;5098316;27;19923;-64
2023/09/28 13:06:46;;;;;;;;;;;22.40;71.60;;;;;;5108972;27;20006;-64
2023/09/28 13:09:21;;;;;;;;;;;22.40;71.30;;;;;;5088665;28;19928;-64
2023/09/28 13:11:55;;;;;;;;;;;22.30;71.50;;;;;;5081793;28;19934;-63
2023/09/28 13:14:29;;;;;;;;;;;22.30;71.30;;;;;;5088950;28;20367;-63
2023/09/28 13:17:05;;;;;;;;;;;22.30;71.30;;;;;;5088059;28;20387;-65
2023/09/28 13:19:40;;;;;;;;;;;22.30;71.70;;;;;;5083305;28;19940;-63
2023/09/28 13:22:13;;;;;;;;;;;22.30;71.20;;;;;;5087060;28;19931;-63
2023/09/28 13:24:47;;;;;;;;;;;22.20;71.70;;;;;;5079076;28;20424;-64
2023/09/28 13:27:21;;;;;;;;;;;22.20;72.10;;;;;;5087876;28;19946;-64
2023/09/28 13:29:55;;;;;;;;;;;22.20;71.80;;;;;;5086152;28;19969;-64
2023/09/28 13:32:28;;;;;;;;;;;22.10;72.10;;;;;;5089047;28;20168;-65
2023/09/28 13:34:55;;;;;;;;;;;22.20;72.30;;;;;;5090566;28;19930;-64
2023/09/28 13:37:32;;;;;;;;;;;22.20;72.60;;;;;;5089802;28;19925;-64
2023/09/28 13:40:13;;;;;;;;;;;22.20;72.10;;;;;;5089782;28;20374;-64
2023/09/28 13:42:51;;;;;;;;;;;22.20;72.40;;;;;;5089307;27;19924;-65
2023/09/28 13:45:26;;;;;;;;;;;22.10;72.00;;;;;;5096329;27;19993;-63
2023/09/28 13:48:00;;;;;;;;;;;22.10;72.10;;;;;;5092042;27;19960;-64
2023/09/28 13:50:28;;;;;;;;;;;22.10;72.20;;;;;;5090354;27;20914;-64
2023/09/28 13:53:01;;;;;;;;;;;22.10;72.60;;;;;;5093092;27;20310;-64
2023/09/28 13:55:39;;;;;;;;;;;22.10;73.30;;;;;;5098808;28;19935;-64
2023/09/28 13:58:16;;;;;;;;;;;22.10;72.20;;;;;;5112726;27;19951;-64
2023/09/28 14:00:50;;;;;;;;;;;22.10;72.20;;;;;;5111662;27;19924;-64
2023/09/28 14:03:27;;;;;;;;;;;22.10;72.10;;;;;;5089146;27;20272;-63
2023/09/28 14:06:01;;;;;;;;;;;22.10;72.40;;;;;;5089074;27;19955;-64
2023/09/28 14:08:35;;;;;;;;;;;22.10;72.20;;;;;;5110240;27;19931;-64
2023/09/28 14:11:09;;;;;;;;;;;22.10;72.60;;;;;;5107056;27;19963;-63
2023/09/28 14:13:43;;;;;;;;;;;22.10;72.80;;;;;;5110326;27;20085;-64
2023/09/28 14:16:17;;;;;;;;;;;22.20;72.60;;;;;;5089377;27;20023;-65
2023/09/28 14:18:50;;;;;;;;;;;22.20;72.40;;;;;;5107577;27;20350;-66
2023/09/28 14:21:25;;;;;;;;;;;22.10;72.40;;;;;;5097494;27;19928;-63
2023/09/28 14:23:59;;;;;;;;;;;22.10;72.80;;;;;;5088960;28;19971;-64
2023/09/28 14:26:32;;;;;;;;;;;22.10;72.80;;;;;;5090795;28;19924;-65
2023/09/28 14:29:06;;;;;;;;;;;22.10;72.90;;;;;;5090592;28;19924;-64
2023/09/28 14:31:40;;;;;;;;;;;22.10;73.10;;;;;;5089981;28;19928;-65
2023/09/28 14:34:13;;;;;;;;;;;22.10;73.40;;;;;;5086928;28;20011;-64
2023/09/28 14:36:46;;;;;;;;;;;22.10;73.40;;;;;;5090919;28;20441;-64
2023/09/28 14:39:20;;;;;;;;;;;22.10;73.80;;;;;;5090088;28;19933;-63
2023/09/28 14:41:53;;;;;;;;;;;22.10;73.50;;;;;;5090008;28;19932;-71
2023/09/28 14:44:27;;;;;;;;;;;22.10;73.30;;;;;;5088601;28;20362;-70
2023/09/28 14:47:01;;;;;;;;;;;22.10;72.70;;;;;;5088828;28;19955;-71
2023/09/28 14:49:34;;;;;;;;;;;22.10;73.00;;;;;;5089910;28;20379;-71
2023/09/28 14:52:07;;;;;;;;;;;22.10;73.00;;;;;;5087126;28;19942;-71
2023/09/28 14:54:41;;;;;;;;;;;22.10;72.90;;;;;;5089048;28;19924;-71
2023/09/28 14:57:14;;;;;;;;;;;22.10;72.90;;;;;;5089806;28;20390;-71
2023/09/28 14:59:48;;;;;;;;;;;22.10;72.90;;;;;;5088026;28;20409;-71
2023/09/28 15:02:23;;;;;;;;;;;22.10;73.50;;;;;;5094113;27;20020;-71
2023/09/28 15:04:59;;;;;;;;;;;22.10;72.80;;;;;;5087382;28;19932;-71
2023/09/28 15:07:33;;;;;;;;;;;22.10;73.00;;;;;;5087521;28;20330;-70
2023/09/28 15:10:00;;;;;;;;;;;22.10;73.30;;;;;;5088642;28;19931;-71
2023/09/28 15:12:34;;;;;;;;;;;22.10;72.80;;;;;;5089589;28;19969;-72
2023/09/28 15:15:08;;;;;;;;;;;22.10;72.90;;;;;;5088558;28;20042;-71